Time;durP1;ratioP1;P1;durP2;ratioP2;P2;SDS_P1;SDS_P2;PMS_P1;PMS_P2;Temp;Humidity;BMP_temperature;BMP_pressure;BME280_temperature;BME280_humidity;BME280_pressure;Samples;Min_cycle;Max_cycle;Signal;HPM_P1;HPM_P2
2021/12/31 00:01:49;;;;;;;2.17;1.47;;;11.70;99.90;;;;;;4994715;28;20258;-75
2021/12/31 00:04:14;;;;;;;3.40;1.40;;;11.70;99.90;;;;;;4994609;28;20173;-74
2021/12/31 00:06:42;;;;;;;4.93;1.60;;;11.70;99.90;;;;;;4994485;28;20203;-74
2021/12/31 00:09:08;;;;;;;3.23;1.40;;;11.60;99.90;;;;;;4994528;28;20241;-74
2021/12/31 00:11:35;;;;;;;1.87;1.57;;;11.60;99.90;;;;;;4983218;28;20652;-74
2021/12/31 00:14:01;;;;;;;2.03;1.40;;;11.70;99.90;;;;;;5014187;28;20228;-74
2021/12/31 00:16:27;;;;;;;3.27;1.70;;;11.60;99.90;;;;;;5013952;28;20201;-74
2021/12/31 00:18:53;;;;;;;1.90;1.70;;;11.60;99.90;;;;;;5013820;28;20177;-74
2021/12/31 00:21:19;;;;;;;3.53;1.63;;;11.60;99.90;;;;;;5013915;28;20178;-74
2021/12/31 00:23:46;;;;;;;3.27;1.33;;;11.60;99.90;;;;;;5013892;28;20174;-74
2021/12/31 00:26:11;;;;;;;3.07;1.40;;;11.60;99.90;;;;;;5013846;28;20625;-74
2021/12/31 00:28:37;;;;;;;1.53;1.43;;;11.60;99.90;;;;;;4997018;28;20212;-74
2021/12/31 00:31:03;;;;;;;3.47;2.07;;;11.60;99.90;;;;;;4996802;28;20572;-74
2021/12/31 00:33:28;;;;;;;2.77;2.10;;;11.50;99.90;;;;;;5013590;28;20224;-75
2021/12/31 00:35:54;;;;;;;4.17;2.10;;;11.50;99.90;;;;;;5013365;28;20218;-75
2021/12/31 00:38:20;;;;;;;4.70;2.07;;;11.40;99.90;;;;;;5014204;28;20196;-75
2021/12/31 00:40:46;;;;;;;5.30;1.87;;;11.40;99.90;;;;;;4996033;28;20553;-75
2021/12/31 00:43:12;;;;;;;4.03;2.07;;;11.40;99.90;;;;;;5013806;28;20258;-75
2021/12/31 00:45:40;;;;;;;2.57;2.00;;;11.40;99.90;;;;;;4979831;28;20208;-75
2021/12/31 00:48:11;;;;;;;3.13;1.57;;;11.30;99.90;;;;;;4993835;28;20177;-75
2021/12/31 00:50:37;;;;;;;4.17;2.23;;;11.30;99.90;;;;;;4995073;28;20169;-75
2021/12/31 00:53:03;;;;;;;1.87;1.70;;;11.20;99.90;;;;;;4993883;28;20601;-74
2021/12/31 00:55:29;;;;;;;3.40;2.13;;;11.20;99.90;;;;;;4976076;28;20189;-75
2021/12/31 00:57:55;;;;;;;2.57;1.70;;;11.20;99.90;;;;;;4993760;28;20210;-75
2021/12/31 01:00:20;;;;;;;2.87;2.00;;;11.20;99.90;;;;;;4976341;28;20292;-75
2021/12/31 01:02:46;;;;;;;3.27;1.77;;;11.20;99.90;;;;;;4993646;28;20181;-75
2021/12/31 01:05:13;;;;;;;2.40;1.60;;;11.10;99.90;;;;;;4993890;28;20203;-74
2021/12/31 01:07:39;;;;;;;4.27;1.33;;;11.10;99.90;;;;;;5001300;28;20214;-74
2021/12/31 01:10:07;;;;;;;2.00;1.20;;;11.10;99.90;;;;;;4993277;28;20726;-75
2021/12/31 01:12:33;;;;;;;2.67;1.50;;;11.10;99.90;;;;;;4993930;28;20259;-76
2021/12/31 01:15:03;;;;;;;2.23;1.60;;;11.00;99.90;;;;;;5011243;28;20178;-75
2021/12/31 01:20:24;;;;;;;2.63;1.30;;;11.00;99.90;;;;;;4922853;28;20490;-74
2021/12/31 01:22:49;;;;;;;4.70;1.90;;;11.00;99.90;;;;;;4974670;28;20171;-75
2021/12/31 01:25:15;;;;;;;6.77;1.37;;;10.90;99.90;;;;;;4992276;28;20655;-75
2021/12/31 01:27:42;;;;;;;1.60;1.30;;;10.90;99.90;;;;;;4993539;28;20271;-75
2021/12/31 01:30:10;;;;;;;2.13;1.00;;;10.90;99.90;;;;;;4976163;28;20193;-75
2021/12/31 01:32:36;;;;;;;2.60;1.20;;;10.90;99.90;;;;;;4993314;28;20198;-75
2021/12/31 01:35:02;;;;;;;2.07;1.20;;;11.00;99.90;;;;;;5011847;28;20630;-75
2021/12/31 01:37:28;;;;;;;1.83;1.20;;;11.00;99.90;;;;;;5032215;28;20220;-74
2021/12/31 01:39:54;;;;;;;2.10;1.13;;;10.90;99.90;;;;;;5032747;28;20741;-75
2021/12/31 01:42:28;;;;;;;1.37;1.27;;;11.00;99.90;;;;;;5033101;28;20220;-75
2021/12/31 01:45:00;;;;;;;3.03;1.40;;;11.00;99.90;;;;;;5015044;28;20166;-75
2021/12/31 01:47:45;;;;;;;2.30;1.50;;;11.00;99.90;;;;;;5032529;28;20199;-75
2021/12/31 01:50:11;;;;;;;2.17;1.40;;;11.00;99.90;;;;;;5015097;28;20660;-75
2021/12/31 01:52:40;;;;;;;4.40;1.53;;;11.00;99.90;;;;;;5032669;28;20217;-75
2021/12/31 01:55:10;;;;;;;3.07;1.53;;;11.00;99.90;;;;;;5032641;28;20268;-75
2021/12/31 01:57:38;;;;;;;2.63;1.67;;;11.00;99.90;;;;;;5022953;28;20210;-75
2021/12/31 02:00:04;;;;;;;2.93;1.67;;;10.90;99.90;;;;;;4993330;28;20174;-75
2021/12/31 02:02:30;;;;;;;1.70;1.43;;;10.90;99.90;;;;;;4976310;28;20172;-75
2021/12/31 02:04:56;;;;;;;2.23;1.60;;;11.00;99.90;;;;;;4975871;28;20278;-75
2021/12/31 02:07:21;;;;;;;4.60;1.63;;;10.90;99.90;;;;;;4977502;28;20196;-74
2021/12/31 02:09:48;;;;;;;2.00;1.43;;;11.00;99.90;;;;;;4996863;28;20187;-75
2021/12/31 02:12:16;;;;;;;3.13;2.00;;;11.10;99.90;;;;;;5013634;28;20268;-75
2021/12/31 02:14:42;;;;;;;3.73;1.80;;;11.00;99.90;;;;;;5016177;28;20174;-74
2021/12/31 02:17:10;;;;;;;3.23;1.70;;;11.00;99.90;;;;;;4998410;28;20706;-75
2021/12/31 02:19:37;;;;;;;3.20;1.70;;;11.00;99.90;;;;;;5016134;28;20649;-75
2021/12/31 02:22:03;;;;;;;2.27;1.30;;;11.20;99.90;;;;;;5016466;28;20251;-74
2021/12/31 02:24:29;;;;;;;2.00;1.30;;;11.00;99.90;;;;;;5015978;28;20226;-75
2021/12/31 02:26:55;;;;;;;2.03;1.40;;;11.00;99.90;;;;;;5015943;28;20714;-75
2021/12/31 02:29:25;;;;;;;3.20;1.70;;;11.00;99.90;;;;;;4999731;28;20649;-74
2021/12/31 02:31:52;;;;;;;1.90;1.60;;;11.10;99.90;;;;;;5016268;28;20158;-75
2021/12/31 02:34:18;;;;;;;2.00;1.77;;;11.10;99.90;;;;;;4998260;28;20182;-74
2021/12/31 02:36:44;;;;;;;5.57;2.30;;;11.10;99.90;;;;;;5000505;28;20219;-75
2021/12/31 02:39:10;;;;;;;3.80;2.27;;;11.20;99.90;;;;;;4996839;28;20169;-74
2021/12/31 02:41:35;;;;;;;3.00;2.70;;;11.20;99.90;;;;;;4996680;28;20166;-75
2021/12/31 02:44:01;;;;;;;3.77;2.70;;;11.20;99.90;;;;;;4996462;28;20171;-75
2021/12/31 02:46:27;;;;;;;3.93;2.93;;;11.10;99.90;;;;;;4996024;28;20201;-75
2021/12/31 02:48:57;;;;;;;4.00;2.80;;;11.10;99.90;;;;;;4996050;28;20173;-75
2021/12/31 02:51:25;;;;;;;4.17;2.70;;;11.10;99.90;;;;;;4996335;28;20513;-75
2021/12/31 02:53:53;;;;;;;3.53;2.87;;;11.10;99.90;;;;;;4996004;28;20167;-75
2021/12/31 02:56:19;;;;;;;2.77;2.50;;;11.10;99.90;;;;;;4995846;28;20268;-75
2021/12/31 02:58:45;;;;;;;3.20;2.50;;;11.10;99.90;;;;;;4996069;28;20178;-74
2021/12/31 03:01:12;;;;;;;3.43;2.40;;;11.20;99.90;;;;;;4984053;28;20169;-75
2021/12/31 03:03:39;;;;;;;2.70;2.50;;;11.10;99.90;;;;;;5004466;28;20238;-75
2021/12/31 03:06:06;;;;;;;3.37;2.10;;;11.10;99.90;;;;;;4987871;28;20218;-75
2021/12/31 03:08:40;;;;;;;3.10;2.40;;;11.00;99.90;;;;;;5005340;28;20173;-75
2021/12/31 03:11:06;;;;;;;3.17;2.40;;;11.00;99.90;;;;;;4987600;28;20178;-75
2021/12/31 03:13:34;;;;;;;2.60;2.27;;;10.90;99.90;;;;;;5006645;28;20170;-75
2021/12/31 03:16:00;;;;;;;2.07;1.87;;;10.80;99.90;;;;;;4984997;28;20711;-75
2021/12/31 03:18:27;;;;;;;3.50;2.40;;;10.80;99.90;;;;;;4987168;28;20196;-76
2021/12/31 03:21:21;;;;;;;2.77;2.57;;;10.80;99.90;;;;;;5003108;28;20169;-75
2021/12/31 03:23:39;;;;;;;3.33;2.47;;;10.70;99.90;;;;;;5002108;28;20284;-76
2021/12/31 03:26:05;;;;;;;3.20;2.40;;;10.60;99.90;;;;;;5000554;28;20619;-75
2021/12/31 03:28:31;;;;;;;2.27;2.07;;;10.60;99.90;;;;;;5004605;28;20236;-75
2021/12/31 03:30:57;;;;;;;3.17;2.47;;;10.60;99.90;;;;;;5012338;28;20247;-75
2021/12/31 03:33:23;;;;;;;3.03;2.00;;;10.50;99.90;;;;;;4985658;28;20239;-75
2021/12/31 03:35:49;;;;;;;2.10;1.70;;;10.50;99.90;;;;;;4984191;28;20221;-75
2021/12/31 03:38:15;;;;;;;2.47;2.03;;;10.50;99.90;;;;;;4986306;28;20204;-76
2021/12/31 03:40:40;;;;;;;3.10;1.80;;;10.40;99.90;;;;;;5002619;28;20533;-76
2021/12/31 03:43:08;;;;;;;2.10;1.90;;;10.40;99.90;;;;;;4984866;28;20167;-75
2021/12/31 03:45:34;;;;;;;2.27;2.07;;;10.40;99.90;;;;;;5007266;28;20634;-74
2021/12/31 03:48:00;;;;;;;3.93;2.00;;;10.30;99.90;;;;;;5014389;28;20262;-75
2021/12/31 03:50:25;;;;;;;2.27;1.77;;;10.30;99.90;;;;;;5014403;28;20260;-75
2021/12/31 03:52:51;;;;;;;2.87;1.90;;;10.20;99.90;;;;;;5014701;28;20225;-75
2021/12/31 03:55:17;;;;;;;2.07;1.87;;;10.30;99.90;;;;;;4996499;28;20719;-74
2021/12/31 03:57:42;;;;;;;2.53;1.40;;;10.30;99.90;;;;;;5014055;28;20204;-75
2021/12/31 04:00:10;;;;;;;1.50;1.30;;;10.40;99.90;;;;;;5014507;28;20173;-75
2021/12/31 04:02:36;;;;;;;1.80;1.60;;;10.40;99.90;;;;;;4993599;28;20242;-74
2021/12/31 04:05:02;;;;;;;2.73;1.53;;;10.50;99.90;;;;;;4996870;28;20590;-75
2021/12/31 04:07:28;;;;;;;3.17;1.90;;;10.50;99.90;;;;;;5013599;28;20278;-75
2021/12/31 04:09:53;;;;;;;1.43;1.30;;;10.50;99.90;;;;;;4996514;28;20267;-74
2021/12/31 04:12:19;;;;;;;1.93;1.50;;;10.50;99.90;;;;;;5014143;28;20202;-75
2021/12/31 04:14:45;;;;;;;2.67;1.80;;;10.60;99.90;;;;;;4996335;28;20179;-74
2021/12/31 04:17:10;;;;;;;1.97;1.60;;;10.60;99.90;;;;;;5014026;28;20203;-75
2021/12/31 04:19:36;;;;;;;2.47;1.43;;;10.60;99.90;;;;;;4996946;28;20705;-75
2021/12/31 04:22:03;;;;;;;2.37;1.43;;;10.60;99.90;;;;;;5013931;28;20177;-74
2021/12/31 04:27:09;;;;;;;1.40;1.30;;;10.70;99.90;;;;;;5012877;28;20193;-75
2021/12/31 04:29:35;;;;;;;2.10;1.47;;;10.70;99.90;;;;;;4976328;28;20240;-75
2021/12/31 04:32:01;;;;;;;3.43;1.80;;;10.60;99.90;;;;;;4994137;28;20180;-75
2021/12/31 04:34:28;;;;;;;2.03;1.83;;;10.60;99.90;;;;;;4994004;28;20178;-74
2021/12/31 04:36:53;;;;;;;2.83;1.47;;;10.60;99.90;;;;;;4976422;28;20306;-75
2021/12/31 04:39:19;;;;;;;2.43;1.60;;;10.70;99.90;;;;;;4993992;28;20600;-74
2021/12/31 04:41:45;;;;;;;5.57;1.80;;;10.60;99.90;;;;;;4995161;28;20727;-75
2021/12/31 04:44:11;;;;;;;2.03;1.80;;;10.50;99.90;;;;;;5012901;28;20560;-75
2021/12/31 04:46:37;;;;;;;1.60;1.50;;;10.60;99.90;;;;;;5013574;28;20255;-74
2021/12/31 04:49:03;;;;;;;2.43;2.23;;;10.60;99.90;;;;;;5013483;28;20201;-74
2021/12/31 04:51:29;;;;;;;3.77;1.40;;;10.50;99.90;;;;;;5013509;28;20770;-74
2021/12/31 04:53:54;;;;;;;2.50;2.30;;;10.50;99.90;;;;;;4995769;28;20256;-75
2021/12/31 04:56:20;;;;;;;1.43;1.33;;;10.40;99.90;;;;;;4995723;28;20681;-74
2021/12/31 04:58:46;;;;;;;2.20;1.90;;;10.40;99.90;;;;;;5032463;23;20363;-78
2021/12/31 05:01:12;;;;;;;1.77;1.60;;;10.30;99.90;;;;;;4993515;28;20666;-77
2021/12/31 05:03:37;;;;;;;2.40;1.43;;;10.30;99.90;;;;;;4998316;28;20179;-77
2021/12/31 05:06:03;;;;;;;1.53;1.43;;;10.40;99.90;;;;;;4999268;28;20182;-77
2021/12/31 05:08:29;;;;;;;1.90;1.60;;;10.40;99.90;;;;;;5015941;28;20190;-77
2021/12/31 05:10:54;;;;;;;2.40;2.07;;;10.30;99.90;;;;;;4998273;28;20175;-77
2021/12/31 05:13:20;;;;;;;3.07;2.70;;;10.30;99.90;;;;;;5016305;28;20175;-77
2021/12/31 05:15:50;;;;;;;4.30;2.93;;;10.30;99.90;;;;;;4998488;28;20186;-77
2021/12/31 05:18:17;;;;;;;2.60;2.40;;;10.20;99.90;;;;;;5015719;28;20202;-77
2021/12/31 05:20:43;;;;;;;3.53;2.70;;;10.10;99.90;;;;;;4998267;28;20171;-77
2021/12/31 05:23:09;;;;;;;4.27;2.60;;;10.20;99.90;;;;;;5016106;28;20222;-77
2021/12/31 05:25:34;;;;;;;4.83;3.47;;;10.20;99.90;;;;;;5015658;28;20175;-77
2021/12/31 05:28:00;;;;;;;4.00;3.00;;;10.20;99.90;;;;;;4989321;28;20191;-77
2021/12/31 05:30:26;;;;;;;4.10;3.37;;;10.30;99.90;;;;;;4996311;28;20594;-77
2021/12/31 05:32:52;;;;;;;3.53;3.23;;;10.10;99.90;;;;;;5012871;28;20267;-77
2021/12/31 05:35:18;;;;;;;3.50;3.20;;;10.20;99.90;;;;;;4998173;28;20234;-77
2021/12/31 05:37:43;;;;;;;4.07;3.27;;;10.10;99.90;;;;;;4998825;28;20213;-78
2021/12/31 05:40:10;;;;;;;6.67;3.83;;;10.10;99.90;;;;;;5016156;28;20175;-78
2021/12/31 05:42:36;;;;;;;4.37;3.37;;;10.10;99.90;;;;;;5018557;28;20169;-77
2021/12/31 05:45:02;;;;;;;3.60;3.30;;;10.10;99.90;;;;;;5002348;28;20262;-77
2021/12/31 05:47:28;;;;;;;4.13;3.73;;;10.10;99.90;;;;;;5019539;28;20228;-78
2021/12/31 05:49:54;;;;;;;4.33;3.37;;;10.10;99.90;;;;;;5019966;28;20179;-77
2021/12/31 05:52:20;;;;;;;4.03;3.70;;;10.10;99.90;;;;;;5020140;28;20167;-77
2021/12/31 05:54:46;;;;;;;3.93;3.57;;;10.10;99.90;;;;;;5001543;28;20258;-77
2021/12/31 05:57:12;;;;;;;4.20;3.80;;;10.10;99.90;;;;;;5017906;28;20274;-78
2021/12/31 05:59:38;;;;;;;3.73;3.43;;;10.00;99.90;;;;;;4997740;28;20184;-77
2021/12/31 06:02:03;;;;;;;5.13;3.83;;;10.00;99.90;;;;;;4980033;28;20708;-77
2021/12/31 06:04:29;;;;;;;4.80;3.43;;;10.00;99.90;;;;;;4980202;28;20248;-77
2021/12/31 06:06:55;;;;;;;3.57;3.27;;;10.00;99.90;;;;;;4980313;28;20197;-77
2021/12/31 06:09:20;;;;;;;3.77;2.90;;;10.10;99.90;;;;;;4980170;28;20248;-77
2021/12/31 06:11:46;;;;;;;4.07;3.20;;;10.10;99.90;;;;;;4979370;28;20232;-77
2021/12/31 06:14:13;;;;;;;5.20;3.00;;;10.10;99.90;;;;;;4979114;28;20177;-78
2021/12/31 06:16:43;;;;;;;3.30;3.00;;;10.10;99.90;;;;;;4980369;28;20193;-77
2021/12/31 06:19:11;;;;;;;3.50;2.90;;;10.10;99.90;;;;;;4979903;28;20209;-77
2021/12/31 06:21:39;;;;;;;3.30;2.97;;;10.10;99.90;;;;;;4980313;28;20196;-77
2021/12/31 06:24:05;;;;;;;4.20;3.23;;;10.20;99.90;;;;;;4979656;28;20618;-77
2021/12/31 06:26:31;;;;;;;5.57;3.40;;;10.20;99.90;;;;;;4980328;28;20533;-77
2021/12/31 06:28:57;;;;;;;6.10;3.03;;;10.20;99.90;;;;;;4995446;28;20200;-77
2021/12/31 06:31:23;;;;;;;3.87;3.57;;;10.20;99.90;;;;;;4999511;28;20168;-77
2021/12/31 06:33:49;;;;;;;5.77;4.37;;;10.30;99.90;;;;;;4998448;28;20176;-77
2021/12/31 06:36:15;;;;;;;4.50;3.83;;;10.40;99.90;;;;;;4997715;28;20175;-77
2021/12/31 06:38:41;;;;;;;4.60;3.90;;;10.40;99.90;;;;;;4997929;28;20218;-77
2021/12/31 06:41:06;;;;;;;5.70;5.10;;;10.40;99.90;;;;;;4998653;28;20168;-77
2021/12/31 06:43:32;;;;;;;5.60;4.67;;;10.50;99.90;;;;;;4998029;28;20176;-77
2021/12/31 06:45:58;;;;;;;6.43;4.73;;;10.50;99.90;;;;;;4998705;28;20173;-77
2021/12/31 06:48:23;;;;;;;5.37;4.27;;;10.50;99.90;;;;;;4997350;28;20207;-77
2021/12/31 06:50:49;;;;;;;5.23;4.80;;;10.50;99.90;;;;;;4998858;28;20172;-77
2021/12/31 06:53:15;;;;;;;3.73;3.43;;;10.50;99.90;;;;;;4997084;28;20270;-77
2021/12/31 06:55:40;;;;;;;4.77;4.10;;;10.60;99.90;;;;;;4998018;28;20173;-77
2021/12/31 06:58:06;;;;;;;4.23;3.50;;;10.70;99.90;;;;;;4998024;28;20690;-77
2021/12/31 07:00:32;;;;;;;4.47;3.30;;;10.70;99.90;;;;;;4997707;28;20175;-77
2021/12/31 07:03:08;;;;;;;3.63;3.30;;;10.70;99.90;;;;;;4998128;28;20173;-77
2021/12/31 07:05:34;;;;;;;3.10;2.90;;;10.70;99.90;;;;;;4997489;28;20176;-77
2021/12/31 07:08:00;;;;;;;3.70;3.33;;;10.70;99.90;;;;;;4979925;28;20660;-77
2021/12/31 07:10:27;;;;;;;4.07;3.67;;;10.70;99.90;;;;;;4995663;28;20239;-80
2021/12/31 07:13:01;;;;;;;3.70;3.40;;;10.70;99.90;;;;;;5003428;28;20182;-78
2021/12/31 07:15:27;;;;;;;3.83;3.53;;;10.60;99.90;;;;;;5002714;28;20207;-78
2021/12/31 07:17:53;;;;;;;4.63;3.13;;;10.70;99.90;;;;;;4984851;28;20214;-78
2021/12/31 07:20:20;;;;;;;3.00;2.77;;;10.70;99.90;;;;;;4982509;28;20535;-77
2021/12/31 07:22:46;;;;;;;2.87;2.67;;;10.70;99.90;;;;;;5013439;28;20187;-78
2021/12/31 07:25:11;;;;;;;3.87;2.90;;;10.70;99.90;;;;;;5015451;28;20258;-76
2021/12/31 07:27:37;;;;;;;3.17;2.87;;;10.80;99.90;;;;;;5015835;28;20270;-77
2021/12/31 07:30:04;;;;;;;3.23;2.93;;;10.70;99.90;;;;;;5016272;28;20195;-77
2021/12/31 07:32:34;;;;;;;3.00;2.80;;;10.70;99.90;;;;;;5014127;28;20198;-77
2021/12/31 07:34:59;;;;;;;3.80;3.50;;;10.80;99.90;;;;;;4992799;28;20177;-77
2021/12/31 07:37:25;;;;;;;3.83;3.23;;;10.80;99.90;;;;;;4985437;28;20283;-78
2021/12/31 07:39:58;;;;;;;3.90;3.50;;;10.80;99.90;;;;;;4977316;28;20668;-77
2021/12/31 07:42:24;;;;;;;4.13;3.73;;;10.80;99.90;;;;;;4997031;28;20173;-76
2021/12/31 07:44:50;;;;;;;4.30;4.00;;;10.70;99.90;;;;;;4981428;28;20181;-77
2021/12/31 07:47:15;;;;;;;4.23;3.93;;;10.70;99.90;;;;;;4993563;28;20191;-77
2021/12/31 07:49:41;;;;;;;3.83;3.53;;;10.70;99.90;;;;;;4979675;28;20215;-77
2021/12/31 07:52:07;;;;;;;4.03;3.73;;;10.70;99.90;;;;;;4994363;28;20551;-77
2021/12/31 07:54:33;;;;;;;4.53;4.13;;;10.70;99.90;;;;;;4976794;28;20168;-77
2021/12/31 07:56:58;;;;;;;4.27;3.97;;;10.70;99.90;;;;;;4993580;28;20202;-78
2021/12/31 07:59:24;;;;;;;4.00;3.70;;;10.80;99.90;;;;;;4992671;28;20216;-78
2021/12/31 08:01:50;;;;;;;4.20;3.80;;;10.70;99.90;;;;;;4992510;28;20182;-78
2021/12/31 08:04:15;;;;;;;4.67;4.27;;;10.70;99.90;;;;;;4974487;28;20172;-78
2021/12/31 08:06:41;;;;;;;4.97;4.47;;;10.60;99.90;;;;;;4975073;28;20267;-78
2021/12/31 08:09:07;;;;;;;4.87;4.33;;;10.70;99.90;;;;;;4992150;28;20267;-77
2021/12/31 08:11:32;;;;;;;4.87;4.47;;;10.70;99.90;;;;;;4993160;28;20176;-77
2021/12/31 08:13:58;;;;;;;4.77;4.37;;;10.70;99.90;;;;;;4976412;28;20172;-77
2021/12/31 08:16:23;;;;;;;4.43;4.03;;;10.60;99.90;;;;;;4992386;28;20251;-77
2021/12/31 08:18:49;;;;;;;4.80;4.40;;;10.60;99.90;;;;;;4974635;28;20274;-78
2021/12/31 08:21:15;;;;;;;4.57;4.23;;;10.60;99.90;;;;;;4992172;28;20202;-77
2021/12/31 08:23:40;;;;;;;4.40;4.03;;;10.60;99.90;;;;;;4992341;28;20172;-77
2021/12/31 08:26:06;;;;;;;5.10;4.60;;;10.60;99.90;;;;;;4992025;28;20199;-77
2021/12/31 08:28:32;;;;;;;5.83;4.70;;;10.60;99.90;;;;;;4975343;28;20286;-77
2021/12/31 08:30:58;;;;;;;4.80;4.40;;;10.60;99.90;;;;;;4989901;28;20649;-78
2021/12/31 08:33:26;;;;;;;4.93;4.53;;;10.60;99.90;;;;;;4991482;28;20218;-77
2021/12/31 08:35:52;;;;;;;5.20;4.70;;;10.60;99.90;;;;;;4992883;28;20688;-78
2021/12/31 08:38:17;;;;;;;4.93;4.47;;;10.70;99.90;;;;;;4992382;28;20236;-78
2021/12/31 08:40:43;;;;;;;4.67;4.27;;;10.70;99.90;;;;;;4974917;28;20173;-77
2021/12/31 08:43:09;;;;;;;4.30;3.90;;;10.70;99.90;;;;;;4974831;28;20172;-76
2021/12/31 08:45:35;;;;;;;4.33;3.93;;;10.70;99.90;;;;;;4991916;28;20202;-77
2021/12/31 08:48:01;;;;;;;4.40;4.00;;;10.70;99.90;;;;;;4995508;28;20581;-77
2021/12/31 08:50:27;;;;;;;4.30;3.90;;;10.60;99.90;;;;;;4995115;28;20191;-77
2021/12/31 08:52:53;;;;;;;5.83;4.30;;;10.70;99.90;;;;;;4993787;28;20195;-77
2021/12/31 08:55:19;;;;;;;4.73;4.33;;;10.60;99.90;;;;;;4992028;28;20169;-77
2021/12/31 08:57:44;;;;;;;4.37;3.97;;;10.60;99.90;;;;;;4989012;28;20216;-77
2021/12/31 09:00:11;;;;;;;4.47;4.17;;;10.70;99.90;;;;;;4974379;28;20540;-77
2021/12/31 09:02:39;;;;;;;4.60;4.20;;;10.70;99.90;;;;;;4974638;28;20174;-77
2021/12/31 09:05:06;;;;;;;4.57;4.13;;;10.80;99.90;;;;;;4989084;28;20196;-77
2021/12/31 09:07:32;;;;;;;7.03;4.23;;;10.80;99.90;;;;;;4974440;28;20177;-77
2021/12/31 09:09:57;;;;;;;4.77;4.37;;;10.80;99.90;;;;;;4975450;28;20251;-76
2021/12/31 09:12:23;;;;;;;4.53;4.13;;;10.80;99.90;;;;;;4972760;28;20175;-76
2021/12/31 09:14:49;;;;;;;4.37;3.97;;;10.90;99.90;;;;;;4993206;28;20673;-76
2021/12/31 09:17:15;;;;;;;5.30;4.17;;;11.00;99.90;;;;;;4996848;28;20194;-77
2021/12/31 09:19:40;;;;;;;4.43;4.03;;;11.10;99.90;;;;;;4995534;28;20599;-78
2021/12/31 09:22:06;;;;;;;4.30;3.90;;;11.10;99.90;;;;;;4979340;28;20568;-76
2021/12/31 09:24:32;;;;;;;4.70;4.20;;;11.10;99.90;;;;;;4996184;28;20200;-77
2021/12/31 09:26:58;;;;;;;4.20;3.90;;;11.20;99.90;;;;;;4996768;28;20226;-77
2021/12/31 09:29:23;;;;;;;4.30;4.00;;;11.20;99.90;;;;;;4996212;28;20194;-77
2021/12/31 09:31:52;;;;;;;4.40;4.10;;;11.20;99.90;;;;;;4989157;28;20209;-76
2021/12/31 09:34:19;;;;;;;4.13;3.83;;;11.30;99.90;;;;;;5008575;28;20243;-77
2021/12/31 09:36:45;;;;;;;4.40;4.00;;;11.30;99.90;;;;;;4996790;28;20260;-77
2021/12/31 09:39:11;;;;;;;5.67;4.23;;;11.30;99.90;;;;;;4991508;28;20187;-77
2021/12/31 09:41:38;;;;;;;4.17;3.73;;;11.20;99.90;;;;;;5010253;28;20200;-73
2021/12/31 09:44:04;;;;;;;3.97;3.67;;;11.20;99.90;;;;;;4997093;28;20259;-77
2021/12/31 09:46:30;;;;;;;4.27;3.90;;;11.10;99.90;;;;;;4997439;28;20182;-77
2021/12/31 09:48:55;;;;;;;4.60;4.20;;;11.10;99.90;;;;;;4989672;28;20215;-77
2021/12/31 09:51:23;;;;;;;4.43;3.80;;;11.10;99.90;;;;;;5005723;28;20175;-76
2021/12/31 09:53:51;;;;;;;4.20;3.90;;;11.10;99.90;;;;;;4980880;28;20179;-77
2021/12/31 09:56:16;;;;;;;4.40;3.77;;;11.10;99.90;;;;;;4980391;28;20180;-76
2021/12/31 09:58:42;;;;;;;5.00;4.37;;;11.00;99.90;;;;;;5001852;28;20268;-77
2021/12/31 10:01:09;;;;;;;4.50;4.10;;;11.00;99.90;;;;;;4988430;28;20203;-76
2021/12/31 10:03:37;;;;;;;3.87;3.57;;;10.90;99.90;;;;;;5005348;28;20180;-77
2021/12/31 10:06:13;;;;;;;4.17;3.77;;;10.90;99.90;;;;;;4993172;28;20179;-76
2021/12/31 10:08:43;;;;;;;4.53;4.13;;;11.00;99.90;;;;;;4997997;28;20287;-77
2021/12/31 10:11:22;;;;;;;5.20;4.63;;;11.00;99.90;;;;;;5017060;28;20171;-76
2021/12/31 10:13:55;;;;;;;4.00;3.70;;;11.10;99.90;;;;;;4991611;28;20198;-77
2021/12/31 10:16:35;;;;;;;3.93;3.63;;;11.10;99.90;;;;;;4980056;28;20164;-77
2021/12/31 10:19:11;;;;;;;4.03;3.73;;;11.10;99.90;;;;;;4979524;28;20264;-77
2021/12/31 10:21:42;;;;;;;3.93;3.63;;;11.00;99.90;;;;;;4979521;28;20269;-78
2021/12/31 10:24:25;;;;;;;4.10;3.70;;;11.00;99.90;;;;;;4979222;28;20207;-77
2021/12/31 10:26:58;;;;;;;4.10;3.80;;;10.90;99.90;;;;;;4981919;28;20185;-76
2021/12/31 10:29:25;;;;;;;4.07;3.63;;;10.90;99.90;;;;;;5005227;28;20196;-76
2021/12/31 10:31:52;;;;;;;4.20;3.80;;;11.00;99.90;;;;;;4988716;28;20175;-77
2021/12/31 10:34:32;;;;;;;3.67;3.37;;;11.00;99.90;;;;;;4986695;28;20180;-77
2021/12/31 10:37:20;;;;;;;3.90;3.53;;;11.00;99.90;;;;;;5005683;28;20191;-77
2021/12/31 10:39:55;;;;;;;4.00;3.70;;;11.10;99.90;;;;;;4984599;28;20209;-77
2021/12/31 10:42:32;;;;;;;4.20;3.60;;;11.20;99.90;;;;;;4986883;28;20183;-77
2021/12/31 10:45:00;;;;;;;3.80;3.50;;;11.30;99.90;;;;;;5005216;28;20167;-77
2021/12/31 10:47:42;;;;;;;3.90;3.60;;;11.40;99.90;;;;;;4988744;28;20689;-76
2021/12/31 10:50:20;;;;;;;3.47;3.17;;;11.50;99.90;;;;;;5003985;28;20178;-77
2021/12/31 10:53:02;;;;;;;3.17;2.87;;;11.70;99.90;;;;;;4985491;28;20189;-77
2021/12/31 10:55:33;;;;;;;3.47;3.17;;;11.70;99.90;;;;;;4985485;28;20173;-77
2021/12/31 10:58:00;;;;;;;4.00;3.37;;;11.70;99.90;;;;;;4982661;28;20702;-77
2021/12/31 11:00:41;;;;;;;3.37;3.07;;;11.70;99.90;;;;;;4995772;28;20183;-77
2021/12/31 11:03:06;;;;;;;3.33;3.03;;;11.70;99.90;;;;;;4995749;28;20207;-77
2021/12/31 11:05:33;;;;;;;3.40;3.10;;;11.60;99.90;;;;;;4996404;28;20195;-77
2021/12/31 11:08:00;;;;;;;3.63;3.33;;;11.60;99.90;;;;;;4996013;28;20201;-77
2021/12/31 11:10:35;;;;;;;3.73;3.37;;;11.60;99.90;;;;;;4994579;28;20182;-76
2021/12/31 11:13:15;;;;;;;3.63;3.03;;;11.60;99.90;;;;;;4991418;28;20514;-77
2021/12/31 11:15:47;;;;;;;3.30;3.10;;;11.60;99.90;;;;;;4990311;28;20193;-77
2021/12/31 11:18:18;;;;;;;3.53;3.30;;;11.70;99.90;;;;;;4993927;28;20217;-77
2021/12/31 11:20:46;;;;;;;3.20;2.90;;;11.70;99.90;;;;;;4993075;28;20245;-77
2021/12/31 11:23:12;;;;;;;3.60;3.30;;;11.70;99.90;;;;;;4998857;28;20181;-77
2021/12/31 11:26:00;;;;;;;3.10;2.87;;;11.70;99.90;;;;;;4992820;28;20173;-77
2021/12/31 11:28:28;;;;;;;3.50;3.20;;;11.70;99.90;;;;;;4982303;28;20269;-77
2021/12/31 11:30:56;;;;;;;3.83;3.53;;;11.90;99.90;;;;;;4992707;28;20189;-77
2021/12/31 11:33:27;;;;;;;3.37;3.07;;;12.00;99.90;;;;;;4994039;28;20185;-76
2021/12/31 11:36:09;;;;;;;3.30;3.00;;;12.00;99.90;;;;;;4998320;28;20168;-77
2021/12/31 11:38:36;;;;;;;2.90;2.70;;;11.80;99.90;;;;;;4999622;28;20212;-76
2021/12/31 11:41:14;;;;;;;3.20;2.90;;;11.80;99.90;;;;;;4991533;28;20269;-76
2021/12/31 11:43:44;;;;;;;3.53;3.23;;;12.00;99.90;;;;;;4991137;28;20161;-77
2021/12/31 11:46:12;;;;;;;3.60;3.30;;;12.10;99.90;;;;;;4993661;28;20177;-77
2021/12/31 11:48:47;;;;;;;2.90;2.70;;;12.10;99.90;;;;;;4993050;28;20690;-77
2021/12/31 11:51:21;;;;;;;3.10;2.80;;;12.10;99.90;;;;;;4991382;28;20272;-77
2021/12/31 11:53:58;;;;;;;2.60;2.40;;;12.00;99.90;;;;;;4994534;28;20686;-76
2021/12/31 11:56:36;;;;;;;3.23;2.93;;;12.00;99.90;;;;;;4996185;28;20200;-77
2021/12/31 11:59:07;;;;;;;2.90;2.30;;;12.10;99.90;;;;;;4993605;28;20279;-77
2021/12/31 12:01:41;;;;;;;3.33;2.70;;;12.10;99.90;;;;;;4992408;28;20546;-77
2021/12/31 12:04:23;;;;;;;3.10;2.80;;;12.10;99.90;;;;;;4993201;28;20167;-77
2021/12/31 12:06:55;;;;;;;3.13;2.83;;;12.20;99.90;;;;;;4994822;28;20256;-77
2021/12/31 12:09:22;;;;;;;3.10;2.80;;;12.20;99.90;;;;;;4977557;28;20198;-76
2021/12/31 12:12:05;;;;;;;2.43;2.23;;;12.20;99.90;;;;;;4974648;28;20186;-77
2021/12/31 12:14:45;;;;;;;3.10;2.80;;;12.20;99.90;;;;;;4986129;28;20182;-77
2021/12/31 12:17:13;;;;;;;3.47;3.00;;;12.20;99.90;;;;;;4957865;28;20207;-76
2021/12/31 12:19:50;;;;;;;3.50;3.20;;;12.20;99.90;;;;;;4966865;28;20187;-77
2021/12/31 12:22:27;;;;;;;3.63;3.27;;;12.20;99.90;;;;;;4977246;28;20654;-76
2021/12/31 12:24:54;;;;;;;3.63;2.97;;;12.20;99.90;;;;;;4994752;28;20172;-76
2021/12/31 12:27:22;;;;;;;3.00;2.70;;;12.20;99.90;;;;;;4987308;28;20223;-77
2021/12/31 12:29:49;;;;;;;2.80;2.60;;;12.20;99.90;;;;;;4987945;28;20658;-77
2021/12/31 12:32:17;;;;;;;3.00;2.80;;;12.20;99.90;;;;;;4988174;28;20592;-77
2021/12/31 12:34:44;;;;;;;2.87;2.67;;;12.20;99.90;;;;;;4993704;28;20188;-78
2021/12/31 12:37:11;;;;;;;3.17;2.87;;;12.20;99.90;;;;;;4991613;28;20674;-78
2021/12/31 12:39:37;;;;;;;3.47;3.17;;;12.20;99.90;;;;;;4991481;28;20187;-78
2021/12/31 12:42:07;;;;;;;3.07;2.77;;;12.20;99.90;;;;;;4991459;28;20179;-78
2021/12/31 12:44:33;;;;;;;2.80;2.60;;;12.20;99.90;;;;;;4974544;28;20833;-78
2021/12/31 12:47:00;;;;;;;3.13;2.80;;;12.20;99.90;;;;;;4992439;28;20178;-78
2021/12/31 12:49:26;;;;;;;3.53;2.77;;;12.20;99.90;;;;;;4992135;28;20197;-78
2021/12/31 12:51:54;;;;;;;3.37;3.07;;;12.20;99.90;;;;;;4995215;28;20171;-77
2021/12/31 12:54:22;;;;;;;3.03;2.83;;;12.30;99.90;;;;;;4979488;28;20620;-78
2021/12/31 12:56:52;;;;;;;2.80;2.50;;;12.30;99.90;;;;;;4977897;28;20702;-77